createdAt,value
2022-12-07T00:01:59.018Z,4.60
2022-12-07T00:04:29.997Z,4.60
2022-12-07T00:06:58.112Z,4.70
2022-12-07T00:09:26.251Z,4.70
2022-12-07T00:11:54.389Z,4.70
2022-12-07T00:14:23.016Z,4.70
2022-12-07T00:16:54.070Z,4.70
2022-12-07T00:19:22.404Z,4.60
2022-12-07T00:21:50.639Z,4.70
2022-12-07T00:24:18.788Z,4.60
2022-12-07T00:26:46.921Z,4.60
2022-12-07T00:29:20.060Z,4.60
2022-12-07T00:31:48.883Z,4.60
2022-12-07T00:34:20.962Z,4.60
2022-12-07T00:36:49.982Z,4.50
2022-12-07T00:39:18.696Z,4.50
2022-12-07T00:41:46.827Z,4.50
2022-12-07T00:44:15.195Z,4.50
2022-12-07T00:46:43.317Z,4.50
2022-12-07T00:49:11.457Z,4.50
2022-12-07T00:51:40.972Z,4.50
2022-12-07T00:54:09.544Z,4.50
2022-12-07T00:56:37.757Z,4.50
2022-12-07T00:59:06.289Z,4.50
2022-12-07T01:01:37.599Z,4.40
2022-12-07T01:04:06.373Z,4.40
2022-12-07T01:06:34.974Z,4.30
2022-12-07T01:09:05.879Z,4.30
2022-12-07T01:11:34.447Z,4.30
2022-12-07T01:14:03.523Z,4.30
2022-12-07T01:16:33.724Z,4.30
2022-12-07T01:19:03.353Z,4.30
2022-12-07T01:21:35.781Z,4.20
2022-12-07T01:24:07.684Z,4.30
2022-12-07T01:26:35.884Z,4.30
2022-12-07T01:29:04.107Z,4.20
2022-12-07T01:31:32.571Z,4.20
2022-12-07T01:34:02.453Z,4.20
2022-12-07T01:36:33.023Z,4.20
2022-12-07T01:39:05.658Z,4.20
2022-12-07T01:41:37.544Z,4.20
2022-12-07T01:44:22.423Z,4.20
2022-12-07T01:46:52.051Z,4.20
2022-12-07T01:49:28.512Z,4.20
2022-12-07T01:52:04.856Z,4.10
2022-12-07T01:54:36.892Z,4.10
2022-12-07T01:57:06.496Z,4.20
2022-12-07T01:59:35.567Z,4.20
2022-12-07T02:02:13.259Z,4.20
2022-12-07T02:04:42.096Z,4.20
2022-12-07T02:07:10.507Z,4.20
2022-12-07T02:09:40.091Z,4.20
2022-12-07T02:12:08.639Z,4.20
2022-12-07T02:14:36.811Z,4.30
2022-12-07T02:17:14.203Z,4.20
2022-12-07T02:20:15.819Z,4.20
2022-12-07T02:23:22.039Z,4.20
2022-12-07T02:26:31.293Z,4.10
2022-12-07T02:29:17.084Z,4.10
2022-12-07T02:31:53.678Z,4.10
2022-12-07T02:34:31.596Z,4.10
2022-12-07T02:37:04.960Z,4.10
2022-12-07T02:39:41.359Z,4.10
2022-12-07T02:42:18.057Z,4.10
2022-12-07T02:44:49.407Z,4.20
2022-12-07T02:47:20.803Z,4.20
2022-12-07T02:49:49.638Z,4.10
2022-12-07T02:52:17.963Z,4.20
2022-12-07T02:54:46.177Z,4.20
2022-12-07T02:57:32.259Z,4.20
2022-12-07T03:00:09.263Z,4.20
2022-12-07T03:02:49.138Z,4.20
2022-12-07T03:06:05.961Z,4.20
2022-12-07T03:08:48.126Z,4.20
2022-12-07T03:11:21.911Z,4.20
2022-12-07T03:13:58.097Z,4.30
2022-12-07T03:16:32.506Z,4.30
2022-12-07T03:19:05.322Z,4.30
2022-12-07T03:21:37.587Z,4.30
2022-12-07T03:24:12.278Z,4.30
2022-12-07T03:26:45.321Z,4.20
2022-12-07T03:29:21.386Z,4.20
2022-12-07T03:31:58.235Z,4.20
2022-12-07T03:34:35.987Z,4.20
2022-12-07T03:37:09.478Z,4.20
2022-12-07T03:39:43.406Z,4.20
2022-12-07T03:42:13.192Z,4.10
2022-12-07T03:44:42.002Z,4.10
2022-12-07T03:47:18.750Z,4.10
2022-12-07T03:49:53.199Z,4.10
2022-12-07T03:52:26.758Z,4.00
2022-12-07T03:55:02.541Z,4.00
2022-12-07T03:57:32.685Z,3.90
2022-12-07T04:00:01.659Z,3.90
2022-12-07T04:02:42.685Z,3.80
2022-12-07T04:05:12.183Z,3.70
2022-12-07T04:07:40.456Z,3.60
2022-12-07T04:10:10.060Z,3.50
2022-12-07T04:12:38.300Z,3.50
2022-12-07T04:15:08.478Z,3.50
2022-12-07T04:17:36.698Z,3.50
2022-12-07T04:20:09.254Z,3.50
2022-12-07T04:22:37.622Z,3.60
2022-12-07T04:25:07.096Z,3.50
2022-12-07T04:27:35.351Z,3.60
2022-12-07T04:30:03.922Z,3.60
2022-12-07T04:32:32.344Z,3.60
2022-12-07T04:35:00.485Z,3.70
2022-12-07T04:37:30.060Z,3.70
2022-12-07T04:39:58.252Z,3.70
2022-12-07T04:42:26.355Z,3.70
2022-12-07T04:44:54.464Z,3.80
2022-12-07T04:47:22.694Z,3.80
2022-12-07T04:49:50.939Z,3.80
2022-12-07T04:52:21.931Z,3.80
2022-12-07T04:54:51.595Z,3.80
2022-12-07T04:57:19.762Z,3.80
2022-12-07T04:59:47.884Z,3.80
2022-12-07T05:02:16.026Z,3.80
2022-12-07T05:04:44.515Z,3.80
2022-12-07T05:07:12.672Z,3.80
2022-12-07T05:09:40.859Z,3.80
2022-12-07T05:12:10.346Z,3.80
2022-12-07T05:14:41.332Z,3.70
2022-12-07T05:17:09.427Z,3.70
2022-12-07T05:19:37.602Z,3.60
2022-12-07T05:22:07.664Z,3.60
2022-12-07T05:24:35.760Z,3.50
2022-12-07T05:27:03.925Z,3.50
2022-12-07T05:29:33.612Z,3.50
2022-12-07T05:32:02.053Z,3.50
2022-12-07T05:34:30.307Z,3.50
2022-12-07T05:36:59.881Z,3.40
2022-12-07T05:39:28.185Z,3.40
2022-12-07T05:42:14.681Z,3.40
2022-12-07T05:44:46.631Z,3.40
2022-12-07T05:47:16.699Z,3.40
2022-12-07T05:49:45.047Z,3.40
2022-12-07T05:52:13.255Z,3.40
2022-12-07T05:54:41.455Z,3.40
2022-12-07T05:57:09.679Z,3.40
2022-12-07T05:59:37.689Z,3.40
2022-12-07T06:02:10.391Z,3.40
2022-12-07T06:04:42.523Z,3.40
2022-12-07T06:07:11.909Z,3.40
2022-12-07T06:09:40.335Z,3.40
2022-12-07T06:12:28.246Z,3.30
2022-12-07T06:14:56.440Z,3.20
2022-12-07T06:17:26.242Z,3.30
2022-12-07T06:19:54.511Z,3.30
2022-12-07T06:22:22.685Z,3.30
2022-12-07T06:24:50.802Z,3.30
2022-12-07T06:27:19.160Z,3.30
2022-12-07T06:29:47.304Z,3.30
2022-12-07T06:32:15.571Z,3.40
2022-12-07T06:34:45.264Z,3.40
2022-12-07T06:37:13.404Z,3.40
2022-12-07T06:39:41.760Z,3.50
2022-12-07T06:42:09.895Z,3.50
2022-12-07T06:44:38.064Z,3.50
2022-12-07T06:47:39.096Z,3.50
2022-12-07T06:49:58.948Z,3.50
2022-12-07T06:52:27.167Z,3.50
2022-12-07T06:54:55.317Z,3.50
2022-12-07T06:57:23.862Z,3.50
2022-12-07T06:59:52.107Z,3.50
2022-12-07T07:02:20.390Z,3.60
2022-12-07T07:04:48.550Z,3.60
2022-12-07T07:07:18.136Z,3.50
2022-12-07T07:09:46.604Z,3.60
2022-12-07T07:12:14.752Z,3.50
2022-12-07T07:14:42.896Z,3.50
2022-12-07T07:17:11.123Z,3.40
2022-12-07T07:19:39.406Z,3.50
2022-12-07T07:22:07.643Z,3.50
2022-12-07T07:24:37.168Z,3.60
2022-12-07T07:27:05.518Z,3.60
2022-12-07T07:29:33.656Z,3.70
2022-12-07T07:32:06.625Z,3.70
2022-12-07T07:34:35.507Z,3.70
2022-12-07T07:37:03.795Z,3.80
2022-12-07T07:39:31.926Z,3.80
2022-12-07T07:42:01.457Z,3.80
2022-12-07T07:44:34.716Z,3.80
2022-12-07T07:47:04.342Z,3.80
2022-12-07T07:49:32.528Z,3.90
2022-12-07T07:52:00.704Z,4.00
2022-12-07T07:54:29.022Z,4.10
2022-12-07T07:56:57.170Z,4.10
2022-12-07T07:59:26.908Z,4.10
2022-12-07T08:01:55.355Z,4.10
2022-12-07T08:04:23.625Z,4.10
2022-12-07T08:06:52.024Z,4.10
2022-12-07T08:09:20.430Z,4.10
2022-12-07T08:11:48.533Z,4.10
2022-12-07T08:14:16.675Z,4.20
2022-12-07T08:16:46.154Z,4.20
2022-12-07T08:19:14.464Z,4.20
2022-12-07T08:21:42.922Z,4.30
2022-12-07T08:24:11.076Z,4.30
2022-12-07T08:26:39.434Z,4.30
2022-12-07T08:29:07.594Z,4.40
2022-12-07T08:31:35.865Z,4.40
2022-12-07T08:34:05.434Z,4.40
2022-12-07T08:36:33.580Z,4.50
2022-12-07T08:39:30.280Z,4.50
2022-12-07T08:41:50.223Z,4.50
2022-12-07T08:44:18.337Z,4.50
2022-12-07T08:46:52.048Z,4.50
2022-12-07T08:49:26.579Z,4.60
2022-12-07T08:51:54.983Z,4.70
2022-12-07T08:54:23.779Z,4.70
2022-12-07T08:56:58.674Z,4.80
2022-12-07T08:59:28.456Z,4.80
2022-12-07T09:01:56.659Z,4.80
2022-12-07T09:04:26.396Z,4.80
2022-12-07T09:06:55.834Z,4.90
2022-12-07T09:09:24.402Z,4.90
2022-12-07T09:11:52.550Z,4.90
2022-12-07T09:14:20.725Z,4.90
2022-12-07T09:16:48.857Z,4.90
2022-12-07T09:19:17.066Z,5.00
2022-12-07T09:21:46.792Z,5.00
2022-12-07T09:24:15.650Z,5.10
2022-12-07T09:26:43.786Z,5.20
2022-12-07T09:29:11.989Z,5.20
2022-12-07T09:31:40.342Z,5.30
2022-12-07T09:34:08.600Z,5.30
2022-12-07T09:36:36.866Z,5.30
2022-12-07T09:39:06.613Z,5.30
2022-12-07T09:41:35.260Z,5.40
2022-12-07T09:44:07.638Z,5.40
2022-12-07T09:46:39.477Z,5.50
2022-12-07T09:49:14.165Z,5.50
2022-12-07T09:51:42.560Z,5.60
2022-12-07T09:54:16.057Z,5.60
2022-12-07T09:56:44.916Z,5.70
2022-12-07T09:59:19.666Z,5.70
2022-12-07T10:01:50.681Z,5.70
2022-12-07T10:04:23.030Z,5.80
2022-12-07T10:06:52.176Z,5.70
2022-12-07T10:09:26.045Z,5.70
2022-12-07T10:12:06.984Z,5.70
2022-12-07T10:15:07.950Z,5.70
2022-12-07T10:17:39.604Z,5.70
2022-12-07T10:20:22.102Z,5.70
2022-12-07T10:23:03.385Z,5.60
2022-12-07T10:25:35.904Z,5.70
2022-12-07T10:28:14.787Z,5.70
2022-12-07T10:30:53.833Z,5.60
2022-12-07T10:33:37.355Z,5.60
2022-12-07T10:36:21.894Z,5.60
2022-12-07T10:38:53.875Z,5.60
2022-12-07T10:41:23.594Z,5.60
2022-12-07T10:43:55.388Z,5.70
2022-12-07T10:46:51.659Z,5.70
2022-12-07T10:50:12.520Z,5.70
2022-12-07T10:53:12.346Z,5.70
2022-12-07T10:56:03.434Z,5.70
2022-12-07T10:58:51.457Z,5.70
2022-12-07T11:01:27.947Z,5.70
2022-12-07T11:04:21.574Z,5.60
2022-12-07T11:06:57.149Z,5.60
2022-12-07T11:10:09.284Z,5.70
2022-12-07T11:13:06.632Z,5.70
2022-12-07T11:15:57.353Z,5.80
2022-12-07T11:18:30.409Z,5.70
2022-12-07T11:21:11.171Z,5.70
2022-12-07T11:23:51.463Z,5.70
2022-12-07T11:26:36.876Z,5.80
2022-12-07T11:29:24.111Z,5.80
2022-12-07T11:32:07.545Z,5.80
2022-12-07T11:34:47.701Z,5.80
2022-12-07T11:37:21.169Z,5.80
2022-12-07T11:39:53.702Z,5.80
2022-12-07T11:42:26.598Z,5.80
2022-12-07T11:45:00.207Z,5.80
2022-12-07T11:47:37.863Z,5.80
2022-12-07T11:50:22.775Z,5.90
2022-12-07T11:52:55.713Z,5.90
2022-12-07T11:55:29.329Z,5.90
2022-12-07T11:58:06.107Z,5.90
2022-12-07T12:00:35.671Z,5.90
2022-12-07T12:03:13.144Z,5.90
2022-12-07T12:05:41.918Z,6.00
2022-12-07T12:11:21.395Z,5.90
2022-12-07T12:17:50.600Z,5.90
2022-12-07T12:20:26.288Z,6.00
2022-12-07T12:23:00.384Z,6.00
2022-12-07T12:25:38.147Z,6.10
2022-12-07T12:28:06.859Z,6.10
2022-12-07T12:30:38.493Z,6.10
2022-12-07T12:33:16.006Z,6.10
2022-12-07T12:35:46.326Z,6.00
2022-12-07T12:38:37.953Z,6.00
2022-12-07T12:41:06.490Z,6.00
2022-12-07T12:43:51.866Z,5.90
2022-12-07T12:46:54.242Z,5.90
2022-12-07T12:50:14.675Z,5.90
2022-12-07T12:53:02.264Z,5.90
2022-12-07T12:56:15.672Z,5.90
2022-12-07T12:58:46.800Z,5.90
2022-12-07T13:01:46.902Z,5.90
2022-12-07T13:04:51.548Z,5.80
2022-12-07T13:07:57.072Z,5.80
2022-12-07T13:10:42.707Z,5.80
2022-12-07T13:13:37.345Z,5.70
2022-12-07T13:16:41.813Z,5.80
2022-12-07T13:20:00.178Z,5.70
2022-12-07T13:22:53.865Z,5.70
2022-12-07T13:25:38.824Z,5.70
2022-12-07T13:28:17.530Z,5.70
2022-12-07T13:30:59.563Z,5.70
2022-12-07T13:33:31.129Z,5.60
2022-12-07T13:36:01.405Z,5.60
2022-12-07T13:38:32.720Z,5.60
2022-12-07T13:41:19.784Z,5.60
2022-12-07T13:43:54.093Z,5.70
2022-12-07T13:46:29.790Z,5.70
2022-12-07T13:48:58.025Z,5.70
2022-12-07T13:51:29.296Z,5.80
2022-12-07T13:54:08.971Z,5.90
2022-12-07T13:56:40.412Z,5.80
2022-12-07T13:59:16.975Z,5.80
2022-12-07T14:01:48.913Z,5.80
2022-12-07T14:04:35.114Z,5.90
2022-12-07T14:07:21.737Z,5.80
2022-12-07T14:10:00.825Z,5.80
2022-12-07T14:12:32.731Z,5.80
2022-12-07T14:15:03.490Z,5.80
2022-12-07T14:19:03.985Z,5.80
2022-12-07T14:21:35.057Z,5.80
2022-12-07T14:24:22.111Z,5.80
2022-12-07T14:26:52.176Z,5.80
2022-12-07T14:29:34.729Z,5.80
2022-12-07T14:32:25.402Z,5.80
2022-12-07T14:35:03.131Z,5.80
2022-12-07T14:37:33.109Z,5.80
2022-12-07T14:40:01.378Z,5.70
2022-12-07T14:42:32.110Z,5.70
2022-12-07T14:45:01.867Z,5.70
2022-12-07T14:50:20.755Z,5.60
2022-12-07T14:55:40.591Z,5.50
2022-12-07T14:58:10.338Z,5.40
2022-12-07T15:00:40.023Z,5.50
2022-12-07T15:03:08.330Z,5.40
2022-12-07T15:05:37.127Z,5.40
2022-12-07T15:08:06.160Z,5.40
2022-12-07T15:10:39.524Z,5.40
2022-12-07T15:13:25.567Z,5.40
2022-12-07T15:15:56.361Z,5.30
2022-12-07T15:18:25.983Z,5.30
2022-12-07T15:20:54.413Z,5.20
2022-12-07T15:23:22.595Z,5.20
2022-12-07T15:25:51.598Z,5.20
2022-12-07T15:28:19.803Z,5.20
2022-12-07T15:30:48.401Z,5.20
2022-12-07T15:33:17.991Z,5.10
2022-12-07T15:35:47.385Z,5.10
2022-12-07T15:38:15.590Z,5.10
2022-12-07T15:40:43.779Z,5.10
2022-12-07T15:43:32.500Z,5.10
2022-12-07T15:46:00.317Z,5.10
2022-12-07T15:48:30.160Z,5.10
2022-12-07T15:51:05.239Z,5.10
2022-12-07T15:53:34.453Z,5.10
2022-12-07T15:56:02.950Z,5.10
2022-12-07T15:58:31.168Z,5.10
2022-12-07T16:00:59.505Z,5.10
2022-12-07T16:03:30.674Z,5.00
2022-12-07T16:05:59.622Z,5.00
2022-12-07T16:08:33.343Z,5.00
2022-12-07T16:11:07.946Z,5.00
2022-12-07T16:13:36.808Z,4.90
2022-12-07T16:16:06.378Z,4.90
2022-12-07T16:18:36.109Z,4.90
2022-12-07T16:21:04.509Z,4.80
2022-12-07T16:23:33.132Z,4.80
2022-12-07T16:26:07.829Z,4.80
2022-12-07T16:28:36.071Z,4.80
2022-12-07T16:31:07.883Z,4.80
2022-12-07T16:33:38.896Z,4.80
2022-12-07T16:36:10.280Z,4.80
2022-12-07T16:38:39.167Z,4.70
2022-12-07T16:41:08.565Z,4.70
2022-12-07T16:43:37.644Z,4.60
2022-12-07T16:46:06.673Z,4.60
2022-12-07T16:48:39.872Z,4.60
2022-12-07T16:51:10.520Z,4.60
2022-12-07T16:53:41.269Z,4.60
2022-12-07T16:56:13.530Z,4.50
2022-12-07T16:58:42.996Z,4.50
2022-12-07T17:01:13.273Z,4.50
2022-12-07T17:03:43.081Z,4.50
2022-12-07T17:06:16.633Z,4.50
2022-12-07T17:08:45.370Z,4.50
2022-12-07T17:11:15.307Z,4.50
2022-12-07T17:14:01.548Z,4.50
2022-12-07T17:16:30.767Z,4.50
2022-12-07T17:19:01.214Z,4.40
2022-12-07T17:21:29.362Z,4.30
2022-12-07T17:24:00.184Z,4.30
2022-12-07T17:26:35.188Z,4.30
2022-12-07T17:29:05.500Z,4.30
2022-12-07T17:31:34.219Z,4.30
2022-12-07T17:34:03.929Z,4.30
2022-12-07T17:36:33.893Z,4.30
2022-12-07T17:39:03.480Z,4.30
2022-12-07T17:41:49.770Z,4.40
2022-12-07T17:44:21.099Z,4.30
2022-12-07T17:46:55.290Z,4.30
2022-12-07T17:49:25.311Z,4.30
2022-12-07T17:52:11.355Z,4.30
2022-12-07T17:54:39.659Z,4.30
2022-12-07T17:57:08.753Z,4.30
2022-12-07T17:59:36.921Z,4.30
2022-12-07T18:02:05.933Z,4.30
2022-12-07T18:04:35.747Z,4.30
2022-12-07T18:07:05.630Z,4.30
2022-12-07T18:09:36.092Z,4.30
2022-12-07T18:12:04.905Z,4.30
2022-12-07T18:14:33.333Z,4.30
2022-12-07T18:17:01.791Z,4.30
2022-12-07T18:19:30.024Z,4.30
2022-12-07T18:21:59.746Z,4.30
2022-12-07T18:24:34.919Z,4.30
2022-12-07T18:27:05.216Z,4.30
2022-12-07T18:29:33.546Z,4.30
2022-12-07T18:32:02.057Z,4.30
2022-12-07T18:34:30.537Z,4.30
2022-12-07T18:37:00.194Z,4.30
2022-12-07T18:39:33.451Z,4.30
2022-12-07T18:42:02.432Z,4.30
2022-12-07T18:44:30.919Z,4.40
2022-12-07T18:46:59.379Z,4.40
2022-12-07T18:49:27.928Z,4.40
2022-12-07T18:51:56.313Z,4.40
2022-12-07T18:54:25.808Z,4.50
2022-12-07T18:56:55.480Z,4.50
2022-12-07T18:59:41.480Z,4.50
2022-12-07T19:02:11.404Z,4.50
2022-12-07T19:04:39.627Z,4.50
2022-12-07T19:07:08.203Z,4.50
2022-12-07T19:09:38.080Z,4.50
2022-12-07T19:12:06.617Z,4.50
2022-12-07T19:14:37.122Z,4.50
2022-12-07T19:17:08.581Z,4.40
2022-12-07T19:19:40.153Z,4.40
2022-12-07T19:22:09.514Z,4.40
2022-12-07T19:24:39.254Z,4.30
2022-12-07T19:27:08.943Z,4.40
2022-12-07T19:29:37.440Z,4.40
2022-12-07T19:32:08.801Z,4.30
2022-12-07T19:34:37.627Z,4.30
2022-12-07T19:37:06.221Z,4.30
2022-12-07T19:39:34.776Z,4.30
2022-12-07T19:42:05.260Z,4.40
2022-12-07T19:44:34.975Z,4.40
2022-12-07T19:47:05.834Z,4.40
2022-12-07T19:49:36.398Z,4.40
2022-12-07T19:52:07.618Z,4.40
2022-12-07T19:54:36.837Z,4.40
2022-12-07T19:57:10.076Z,4.40
2022-12-07T19:59:38.600Z,4.40
2022-12-07T20:02:06.829Z,4.40
2022-12-07T20:04:36.216Z,4.40
2022-12-07T20:07:05.038Z,4.30
2022-12-07T20:09:33.266Z,4.30
2022-12-07T20:12:19.240Z,4.30
2022-12-07T20:14:48.768Z,4.30
2022-12-07T20:17:17.063Z,4.30
2022-12-07T20:19:45.259Z,4.30
2022-12-07T20:22:13.531Z,4.30
2022-12-07T20:24:41.859Z,4.30
2022-12-07T20:27:10.115Z,4.20
2022-12-07T20:29:38.279Z,4.20
2022-12-07T20:32:07.976Z,4.20
2022-12-07T20:34:36.194Z,4.20
2022-12-07T20:37:04.505Z,4.20
2022-12-07T20:39:33.691Z,4.20
2022-12-07T20:42:19.620Z,4.20
2022-12-07T20:44:48.015Z,4.20
2022-12-07T20:47:17.448Z,4.30
2022-12-07T20:49:45.596Z,4.30
2022-12-07T20:52:13.777Z,4.20
2022-12-07T20:54:41.910Z,4.20
2022-12-07T20:57:10.080Z,4.20
2022-12-07T20:59:41.692Z,4.20
2022-12-07T21:02:12.889Z,4.20
2022-12-07T21:04:42.727Z,4.20
2022-12-07T21:07:10.928Z,4.20
2022-12-07T21:09:39.337Z,4.20
2022-12-07T21:12:11.157Z,4.10
2022-12-07T21:14:42.140Z,4.20
2022-12-07T21:17:11.245Z,4.10
2022-12-07T21:19:39.851Z,4.10
2022-12-07T21:22:09.470Z,4.10
2022-12-07T21:24:39.617Z,4.10
2022-12-07T21:27:08.279Z,4.10
2022-12-07T21:29:43.749Z,4.10
2022-12-07T21:32:13.357Z,4.10
2022-12-07T21:34:41.710Z,4.10
2022-12-07T21:37:11.293Z,4.00
2022-12-07T21:39:39.920Z,4.00
2022-12-07T21:42:08.071Z,3.90
2022-12-07T21:44:36.435Z,3.90
2022-12-07T21:47:05.011Z,3.90
2022-12-07T21:49:35.524Z,3.90
2022-12-07T21:52:04.065Z,3.80
2022-12-07T21:54:34.457Z,3.80
2022-12-07T21:57:02.854Z,3.80
2022-12-07T21:59:31.059Z,3.80
2022-12-07T22:01:59.217Z,3.70
2022-12-07T22:04:28.708Z,3.60
2022-12-07T22:06:59.339Z,3.50
2022-12-07T22:09:30.127Z,3.50
2022-12-07T22:11:59.695Z,3.40
2022-12-07T22:14:45.763Z,3.30
2022-12-07T22:17:13.922Z,3.10
2022-12-07T22:19:42.096Z,3.00
2022-12-07T22:22:16.114Z,2.90
2022-12-07T22:24:45.243Z,2.80
2022-12-07T22:27:14.898Z,2.70
2022-12-07T22:29:43.083Z,2.60
2022-12-07T22:32:39.788Z,2.60
2022-12-07T22:34:59.482Z,2.50
2022-12-07T22:37:28.784Z,2.40
2022-12-07T22:39:57.010Z,2.30
2022-12-07T22:42:26.581Z,2.20
2022-12-07T22:44:54.789Z,2.20
2022-12-07T22:47:23.207Z,2.00
2022-12-07T22:49:51.773Z,2.00
2022-12-07T22:52:19.969Z,1.90
2022-12-07T22:54:48.304Z,1.90
2022-12-07T22:57:16.413Z,1.80
2022-12-07T22:59:45.936Z,1.80
2022-12-07T23:02:14.238Z,1.70
2022-12-07T23:04:42.523Z,1.70
2022-12-07T23:07:10.798Z,1.60
2022-12-07T23:09:38.955Z,1.60
2022-12-07T23:12:25.794Z,1.60
2022-12-07T23:14:55.310Z,1.50
2022-12-07T23:17:23.608Z,1.50
2022-12-07T23:19:55.789Z,1.50
2022-12-07T23:22:25.454Z,1.40
2022-12-07T23:24:53.598Z,1.30
2022-12-07T23:27:21.787Z,1.30
2022-12-07T23:29:50.082Z,1.20
2022-12-07T23:32:19.548Z,1.10
2022-12-07T23:34:47.700Z,1.10
2022-12-07T23:37:15.853Z,1.10
2022-12-07T23:39:43.999Z,1.00
2022-12-07T23:42:12.142Z,1.00
2022-12-07T23:44:40.279Z,1.00
2022-12-07T23:47:08.506Z,1.00
2022-12-07T23:49:38.350Z,1.00
2022-12-07T23:52:06.838Z,0.90
2022-12-07T23:54:35.022Z,0.90
2022-12-07T23:57:03.209Z,0.90
2022-12-07T23:59:31.406Z,0.90
